Time;durP1;ratioP1;P1;durP2;ratioP2;P2;SDS_P1;SDS_P2;PMS_P1;PMS_P2;Temp;Humidity;BMP_temperature;BMP_pressure;BME280_temperature;BME280_humidity;BME280_pressure;Samples;Min_cycle;Max_cycle;Signal;HPM_P1;HPM_P2
2022/07/08 00:02:05;;;;;;;1.48;1.02;;;24.80;50.60;;;;;;5042373;28;20021;-48
2022/07/08 00:04:31;;;;;;;2.17;1.25;;;24.80;50.50;;;;;;5039132;28;20037;-48
2022/07/08 00:06:57;;;;;;;3.03;1.55;;;24.80;50.60;;;;;;5041356;28;20036;-48
2022/07/08 00:09:23;;;;;;;1.77;1.20;;;24.80;50.40;;;;;;5042445;28;20028;-48
2022/07/08 00:11:48;;;;;;;2.60;1.27;;;24.80;50.60;;;;;;5041637;28;20145;-48
2022/07/08 00:14:14;;;;;;;2.47;1.27;;;24.80;50.60;;;;;;5042046;28;20033;-47
2022/07/08 00:16:40;;;;;;;2.05;1.08;;;24.80;50.60;;;;;;5041460;28;20031;-48
2022/07/08 00:19:14;;;;;;;1.77;1.08;;;24.80;50.70;;;;;;5041126;28;20124;-47
2022/07/08 00:21:44;;;;;;;2.65;1.20;;;24.80;50.50;;;;;;5041124;28;20032;-48
2022/07/08 00:24:13;;;;;;;2.15;1.20;;;24.80;50.50;;;;;;5040822;28;20600;-47
2022/07/08 00:26:41;;;;;;;1.88;1.00;;;24.80;50.60;;;;;;5041598;28;20116;-47
2022/07/08 00:29:07;;;;;;;2.15;1.23;;;24.80;50.40;;;;;;5040371;28;20129;-47
2022/07/08 00:31:33;;;;;;;2.30;1.38;;;24.80;50.40;;;;;;5041944;28;20087;-47
2022/07/08 00:33:59;;;;;;;1.90;1.17;;;24.80;50.00;;;;;;5041795;28;20037;-47
2022/07/08 00:36:26;;;;;;;1.83;1.10;;;24.80;50.40;;;;;;5041169;28;20043;-48
2022/07/08 00:38:52;;;;;;;2.05;1.10;;;24.80;50.50;;;;;;5041242;28;20033;-47
2022/07/08 00:41:18;;;;;;;2.20;1.00;;;24.80;51.00;;;;;;5040118;28;20935;-47
2022/07/08 00:43:47;;;;;;;1.67;0.95;;;24.80;50.30;;;;;;5040973;28;20116;-47
2022/07/08 00:46:14;;;;;;;2.10;1.10;;;24.70;50.50;;;;;;5040523;28;20676;-48
2022/07/08 00:48:40;;;;;;;1.70;0.90;;;24.80;50.60;;;;;;5040374;28;20377;-47
2022/07/08 00:51:08;;;;;;;2.42;1.23;;;24.80;50.60;;;;;;5040438;28;20074;-48
2022/07/08 00:53:35;;;;;;;1.77;1.20;;;24.70;50.60;;;;;;5037356;28;20556;-48
2022/07/08 00:56:02;;;;;;;3.25;1.10;;;24.80;50.60;;;;;;5041082;28;20048;-48
2022/07/08 00:58:30;;;;;;;1.60;0.95;;;24.80;50.60;;;;;;5041240;28;20025;-47
2022/07/08 01:00:55;;;;;;;3.15;1.23;;;24.70;50.60;;;;;;5040264;28;20031;-54
2022/07/08 01:03:21;;;;;;;1.83;1.00;;;24.70;50.50;;;;;;5041500;28;20021;-47
2022/07/08 01:05:47;;;;;;;1.88;1.00;;;24.70;50.70;;;;;;5040571;28;20021;-48
2022/07/08 01:08:13;;;;;;;2.38;1.00;;;24.70;50.60;;;;;;5041101;28;20687;-48
2022/07/08 01:10:39;;;;;;;1.58;1.00;;;24.70;50.50;;;;;;5039974;28;20448;-48
2022/07/08 01:13:06;;;;;;;1.90;1.20;;;24.70;50.50;;;;;;5041006;28;20614;-48
2022/07/08 01:15:32;;;;;;;2.50;1.25;;;24.70;50.50;;;;;;5039655;28;20028;-48
2022/07/08 01:17:59;;;;;;;2.30;1.10;;;24.80;50.40;;;;;;5041107;28;20175;-47
2022/07/08 01:20:25;;;;;;;1.98;1.10;;;24.70;50.40;;;;;;5041366;28;20032;-48
2022/07/08 01:22:51;;;;;;;1.83;1.17;;;24.70;50.20;;;;;;5039846;28;20029;-48
2022/07/08 01:25:18;;;;;;;1.88;1.00;;;24.70;50.30;;;;;;5040930;28;20029;-47
2022/07/08 01:27:44;;;;;;;2.70;1.40;;;24.80;50.30;;;;;;5040172;28;20058;-48
2022/07/08 01:30:10;;;;;;;1.63;0.98;;;24.80;50.30;;;;;;5040908;28;20592;-48
2022/07/08 01:32:38;;;;;;;2.40;1.00;;;24.80;50.40;;;;;;5040979;28;20036;-49
2022/07/08 01:35:04;;;;;;;1.63;0.95;;;24.70;50.40;;;;;;5041073;28;20021;-48
2022/07/08 01:37:30;;;;;;;1.73;1.00;;;24.70;50.30;;;;;;5040078;28;20021;-49
2022/07/08 01:39:56;;;;;;;1.65;1.00;;;24.70;50.30;;;;;;5040660;28;20040;-48
2022/07/08 01:42:22;;;;;;;2.75;1.20;;;24.70;50.30;;;;;;5040350;28;20039;-48
2022/07/08 01:44:48;;;;;;;1.95;1.10;;;24.70;50.30;;;;;;5040728;28;20059;-49
2022/07/08 01:47:14;;;;;;;1.85;1.08;;;24.70;50.30;;;;;;5039773;28;20052;-48
2022/07/08 01:49:39;;;;;;;1.80;1.15;;;24.70;50.20;;;;;;5041091;28;20717;-48
2022/07/08 01:52:06;;;;;;;1.83;1.00;;;24.70;50.10;;;;;;5040390;28;20508;-48
2022/07/08 01:54:32;;;;;;;1.98;1.08;;;24.70;50.20;;;;;;5040415;28;20035;-48
2022/07/08 01:57:13;;;;;;;1.50;1.00;;;24.70;50.30;;;;;;5040011;28;20083;-47
2022/07/08 01:59:40;;;;;;;2.08;1.10;;;24.70;50.10;;;;;;5040758;28;20393;-48
2022/07/08 02:02:06;;;;;;;1.98;1.00;;;24.70;50.20;;;;;;5040222;28;20025;-48
2022/07/08 02:04:31;;;;;;;1.67;1.10;;;24.70;50.30;;;;;;5039930;28;20020;-49
2022/07/08 02:06:57;;;;;;;1.73;1.00;;;24.70;50.40;;;;;;5040217;28;20104;-49
2022/07/08 02:09:23;;;;;;;1.92;1.00;;;24.70;50.30;;;;;;5038998;28;20037;-48
2022/07/08 02:14:32;;;;;;;2.35;1.00;;;24.70;50.40;;;;;;5039607;28;20028;-48
2022/07/08 02:16:58;;;;;;;1.52;0.95;;;24.70;50.20;;;;;;5040337;28;20025;-49
2022/07/08 02:19:24;;;;;;;1.90;0.80;;;24.70;50.40;;;;;;5040235;28;20021;-48
2022/07/08 02:21:50;;;;;;;2.88;1.25;;;24.70;50.30;;;;;;5041797;28;20587;-48
2022/07/08 02:24:16;;;;;;;2.10;1.00;;;24.70;50.30;;;;;;5044259;28;20040;-48
2022/07/08 02:26:42;;;;;;;2.00;1.10;;;24.70;50.30;;;;;;5044028;28;20035;-48
2022/07/08 02:29:08;;;;;;;1.83;1.13;;;24.70;50.30;;;;;;5044711;28;20397;-48
2022/07/08 02:31:34;;;;;;;1.75;0.88;;;24.70;50.30;;;;;;5044266;28;20037;-48
2022/07/08 02:34:00;;;;;;;2.03;1.13;;;24.70;50.30;;;;;;5041940;28;20031;-48
2022/07/08 02:36:26;;;;;;;2.05;0.95;;;24.70;50.40;;;;;;5043093;28;20635;-48
2022/07/08 02:38:52;;;;;;;1.33;0.75;;;24.70;50.40;;;;;;5042142;28;20021;-47
2022/07/08 02:41:17;;;;;;;2.00;1.15;;;24.70;50.40;;;;;;5043882;28;20112;-48
2022/07/08 02:43:43;;;;;;;1.98;1.17;;;24.70;50.40;;;;;;5044345;28;20027;-48
2022/07/08 02:46:09;;;;;;;1.98;1.10;;;24.70;50.40;;;;;;5040635;28;20571;-47
2022/07/08 02:48:34;;;;;;;1.30;0.90;;;24.70;50.30;;;;;;5044296;28;20020;-48
2022/07/08 02:51:01;;;;;;;1.50;0.90;;;24.70;50.40;;;;;;5043325;28;20112;-48
2022/07/08 02:53:26;;;;;;;1.70;0.90;;;24.70;50.40;;;;;;5043754;28;20025;-47
2022/07/08 02:55:52;;;;;;;1.90;1.00;;;24.70;50.50;;;;;;5042818;28;20025;-48
2022/07/08 02:58:17;;;;;;;1.15;0.80;;;24.70;50.50;;;;;;5043854;28;20020;-47
2022/07/08 03:00:43;;;;;;;2.20;1.30;;;24.70;50.50;;;;;;5042376;28;20021;-48
2022/07/08 03:03:09;;;;;;;1.40;0.85;;;24.70;50.50;;;;;;5043900;28;20440;-48
2022/07/08 03:05:35;;;;;;;2.00;1.20;;;24.70;50.40;;;;;;5042963;28;20036;-48
2022/07/08 03:08:00;;;;;;;1.77;1.00;;;24.70;50.50;;;;;;5043617;28;20029;-48
2022/07/08 03:10:26;;;;;;;1.83;1.13;;;24.70;50.50;;;;;;5041207;28;20063;-47
2022/07/08 03:12:52;;;;;;;1.85;0.88;;;24.70;50.50;;;;;;5042279;28;20104;-47
2022/07/08 03:15:18;;;;;;;2.15;1.10;;;24.70;50.60;;;;;;5042749;28;20613;-47
2022/07/08 03:17:43;;;;;;;1.77;1.20;;;24.70;50.50;;;;;;5042864;28;20034;-48
2022/07/08 03:20:09;;;;;;;1.63;1.08;;;24.70;50.50;;;;;;5043352;28;20159;-48
2022/07/08 03:22:35;;;;;;;1.60;0.93;;;24.70;50.50;;;;;;5041470;28;20177;-47
2022/07/08 03:25:00;;;;;;;2.13;1.08;;;24.70;50.40;;;;;;5075031;28;20087;-47
2022/07/08 03:27:26;;;;;;;1.50;0.80;;;24.70;50.50;;;;;;5043353;28;20432;-48
2022/07/08 03:29:52;;;;;;;1.65;1.00;;;24.60;50.20;;;;;;5042088;28;20032;-47
2022/07/08 03:32:17;;;;;;;2.63;1.20;;;24.60;50.30;;;;;;5042233;28;20590;-48
2022/07/08 03:34:43;;;;;;;2.50;0.90;;;24.60;50.30;;;;;;5041879;28;20025;-48
2022/07/08 03:37:09;;;;;;;1.55;1.00;;;24.60;50.10;;;;;;5042305;28;20036;-47
2022/07/08 03:39:35;;;;;;;1.60;1.00;;;24.70;50.60;;;;;;5042886;28;20703;-47
2022/07/08 03:42:01;;;;;;;1.52;0.90;;;24.60;50.30;;;;;;5043535;28;20045;-48
2022/07/08 03:44:26;;;;;;;1.63;1.00;;;24.60;50.20;;;;;;5043284;28;20067;-47
2022/07/08 03:46:52;;;;;;;1.65;0.88;;;24.70;50.30;;;;;;5041936;28;20039;-48
2022/07/08 03:49:18;;;;;;;2.50;1.02;;;24.60;50.30;;;;;;5042808;28;20020;-47
2022/07/08 03:51:43;;;;;;;1.67;0.82;;;24.70;50.10;;;;;;5042734;28;20503;-47
2022/07/08 03:54:09;;;;;;;1.90;1.00;;;24.70;50.20;;;;;;5040149;28;20037;-47
2022/07/08 03:56:35;;;;;;;1.30;0.82;;;24.70;50.40;;;;;;5042491;28;20028;-48
2022/07/08 03:59:01;;;;;;;1.52;1.00;;;24.60;50.20;;;;;;5042838;28;20078;-47
2022/07/08 04:01:26;;;;;;;1.75;1.00;;;24.60;50.30;;;;;;5037542;28;20029;-47
2022/07/08 04:03:52;;;;;;;1.50;0.90;;;24.60;50.20;;;;;;5041583;28;20056;-48
2022/07/08 04:06:18;;;;;;;1.63;0.93;;;24.70;50.10;;;;;;5039207;28;20031;-47
2022/07/08 04:08:44;;;;;;;2.00;1.15;;;24.60;50.20;;;;;;5041266;28;20063;-48
2022/07/08 04:11:10;;;;;;;2.63;1.42;;;24.70;50.40;;;;;;5040155;28;20029;-48
2022/07/08 04:13:39;;;;;;;2.13;1.20;;;24.70;50.30;;;;;;5040215;28;20021;-48
2022/07/08 04:16:08;;;;;;;2.50;1.50;;;24.60;50.30;;;;;;5040507;28;20028;-47
2022/07/08 04:18:34;;;;;;;2.97;1.63;;;24.60;50.30;;;;;;5040501;28;20033;-48
2022/07/08 04:20:59;;;;;;;2.45;1.60;;;24.60;50.20;;;;;;5042190;28;20086;-48
2022/07/08 04:23:25;;;;;;;2.38;1.63;;;24.60;50.30;;;;;;5042046;28;20094;-47
2022/07/08 04:25:51;;;;;;;3.83;1.90;;;24.50;50.90;;;;;;5038008;28;20083;-47
2022/07/08 04:28:17;;;;;;;3.33;2.00;;;24.50;51.40;;;;;;5038600;28;20037;-48
2022/07/08 04:30:42;;;;;;;7.13;3.13;;;24.50;51.30;;;;;;5040868;28;20029;-47
2022/07/08 04:33:08;;;;;;;5.20;2.50;;;24.50;51.70;;;;;;5032914;28;20040;-47
2022/07/08 04:35:36;;;;;;;4.32;1.83;;;24.50;51.90;;;;;;5038365;28;20037;-47
2022/07/08 04:38:02;;;;;;;4.07;2.22;;;24.50;51.80;;;;;;5040037;28;20025;-47
2022/07/08 04:40:28;;;;;;;3.53;1.90;;;24.40;51.50;;;;;;5039689;28;20505;-48
2022/07/08 04:42:54;;;;;;;3.42;1.83;;;24.40;51.50;;;;;;5040291;28;20113;-48
2022/07/08 04:45:21;;;;;;;3.45;1.30;;;24.40;51.80;;;;;;5040394;28;20021;-48
2022/07/08 04:47:47;;;;;;;3.53;1.30;;;24.40;50.70;;;;;;5041322;28;20028;-47
2022/07/08 04:50:13;;;;;;;3.60;1.30;;;24.30;51.30;;;;;;5042114;28;20033;-48
2022/07/08 04:52:38;;;;;;;1.88;1.08;;;24.30;50.80;;;;;;5039280;28;20033;-48
2022/07/08 04:55:05;;;;;;;2.95;1.23;;;24.20;51.40;;;;;;5041371;28;20599;-47
2022/07/08 04:57:33;;;;;;;2.58;1.42;;;24.20;51.00;;;;;;5039964;28;21575;-47
2022/07/08 05:00:00;;;;;;;2.17;0.90;;;24.20;51.40;;;;;;5039922;28;20053;-47
2022/07/08 05:02:26;;;;;;;3.72;1.15;;;24.20;51.40;;;;;;5035652;28;20440;-47
2022/07/08 05:04:52;;;;;;;2.20;1.10;;;24.20;51.40;;;;;;5042260;28;20017;-47
2022/07/08 05:07:18;;;;;;;2.13;1.00;;;24.20;51.40;;;;;;5042023;28;20715;-48
2022/07/08 05:09:44;;;;;;;2.35;0.80;;;24.20;51.40;;;;;;5041672;28;20040;-48
2022/07/08 05:12:10;;;;;;;3.90;0.90;;;24.20;50.70;;;;;;5042288;28;20021;-47
2022/07/08 05:14:36;;;;;;;1.60;0.73;;;24.10;51.20;;;;;;5043627;28;20029;-46
2022/07/08 05:17:02;;;;;;;1.80;0.70;;;24.10;51.00;;;;;;5043640;28;20074;-48
2022/07/08 05:19:27;;;;;;;2.10;1.00;;;24.10;51.20;;;;;;5043124;28;20021;-47
2022/07/08 05:21:53;;;;;;;1.30;0.60;;;24.10;51.10;;;;;;5042222;28;20025;-47
2022/07/08 05:24:19;;;;;;;2.28;0.73;;;24.10;51.40;;;;;;5042404;28;20025;-47
2022/07/08 05:26:44;;;;;;;1.75;0.50;;;24.20;51.10;;;;;;5042010;28;20072;-47
2022/07/08 05:29:10;;;;;;;1.15;0.50;;;24.10;50.70;;;;;;5042538;28;20690;-48
2022/07/08 05:31:36;;;;;;;1.30;0.50;;;24.10;50.10;;;;;;5042731;28;20460;-48
2022/07/08 05:34:01;;;;;;;1.17;0.45;;;24.10;50.20;;;;;;5041753;28;20021;-47
2022/07/08 05:36:27;;;;;;;2.38;0.50;;;24.00;49.90;;;;;;5042168;28;20040;-47
2022/07/08 05:38:53;;;;;;;1.80;0.50;;;24.00;50.60;;;;;;5042275;28;20149;-48
2022/07/08 05:41:19;;;;;;;2.80;0.32;;;24.00;50.30;;;;;;5042726;28;20083;-47
2022/07/08 05:43:44;;;;;;;1.70;0.50;;;24.00;50.20;;;;;;5042314;28;20024;-48
2022/07/08 05:46:10;;;;;;;1.60;0.40;;;24.00;49.90;;;;;;5042537;28;20100;-48
2022/07/08 05:48:35;;;;;;;0.60;0.20;;;23.90;50.30;;;;;;5042362;28;20699;-47
2022/07/08 05:51:01;;;;;;;1.40;0.50;;;23.90;50.40;;;;;;5041391;28;20021;-48
2022/07/08 05:53:27;;;;;;;2.38;0.60;;;23.90;49.80;;;;;;5042096;28;20627;-47
2022/07/08 05:55:52;;;;;;;1.92;0.45;;;23.90;50.00;;;;;;5041327;28;20029;-47
2022/07/08 05:58:18;;;;;;;1.23;0.40;;;23.90;49.70;;;;;;5043993;28;20533;-46
2022/07/08 06:00:44;;;;;;;0.68;0.30;;;23.90;49.90;;;;;;5045956;28;20535;-47
2022/07/08 06:03:09;;;;;;;1.05;0.40;;;23.90;49.30;;;;;;5045553;28;20032;-47
2022/07/08 06:05:35;;;;;;;0.65;0.30;;;23.90;49.90;;;;;;5045455;28;20017;-46
2022/07/08 06:08:00;;;;;;;3.08;0.50;;;23.80;49.60;;;;;;5046000;28;20024;-47
2022/07/08 06:10:26;;;;;;;0.73;0.30;;;23.80;49.40;;;;;;5047084;28;20029;-47
2022/07/08 06:12:53;;;;;;;2.13;0.55;;;23.80;49.60;;;;;;5046289;28;20021;-47
2022/07/08 06:15:20;;;;;;;1.10;0.40;;;23.80;49.80;;;;;;5045824;28;20737;-47
2022/07/08 06:17:46;;;;;;;1.75;0.68;;;23.80;49.90;;;;;;5046223;28;20044;-47
2022/07/08 06:20:14;;;;;;;1.27;0.43;;;23.90;50.00;;;;;;5046828;28;20336;-47
2022/07/08 06:22:40;;;;;;;1.27;0.47;;;23.90;50.00;;;;;;5046725;28;20033;-48
2022/07/08 06:25:06;;;;;;;2.47;0.45;;;23.90;50.00;;;;;;5046418;28;20385;-48
2022/07/08 06:27:32;;;;;;;1.50;0.60;;;23.90;50.00;;;;;;5046494;28;20492;-47
2022/07/08 06:29:58;;;;;;;1.70;0.40;;;23.90;50.00;;;;;;5046425;28;20037;-48
2022/07/08 06:32:23;;;;;;;1.02;0.38;;;24.00;50.00;;;;;;5045024;28;20040;-48
2022/07/08 06:34:49;;;;;;;1.98;0.57;;;24.00;50.00;;;;;;5045999;28;20044;-47
2022/07/08 06:37:15;;;;;;;1.10;0.40;;;24.00;50.10;;;;;;5045986;28;20049;-49
2022/07/08 06:39:41;;;;;;;1.30;0.45;;;24.00;50.10;;;;;;5045881;28;20068;-47
2022/07/08 06:42:07;;;;;;;1.38;0.60;;;24.00;50.00;;;;;;5033692;28;20018;-48
2022/07/08 06:44:33;;;;;;;0.90;0.30;;;24.00;50.10;;;;;;5046412;28;20025;-47
2022/07/08 06:46:58;;;;;;;2.20;0.77;;;24.00;50.10;;;;;;5035706;28;20041;-48
2022/07/08 06:49:24;;;;;;;0.93;0.40;;;24.00;50.20;;;;;;5026187;28;20036;-47
2022/07/08 06:51:50;;;;;;;1.67;0.52;;;24.00;50.20;;;;;;5026396;28;20034;-47
2022/07/08 06:57:00;;;;;;;1.05;0.50;;;24.10;50.30;;;;;;5045458;28;20079;-48
2022/07/08 06:59:26;;;;;;;0.90;0.40;;;24.10;50.30;;;;;;5045979;28;20050;-47
2022/07/08 07:01:52;;;;;;;1.42;0.30;;;24.10;50.30;;;;;;5046146;28;20052;-48
2022/07/08 07:04:18;;;;;;;0.80;0.40;;;24.10;50.30;;;;;;5045990;28;20036;-47
2022/07/08 07:06:44;;;;;;;1.80;0.60;;;24.10;50.30;;;;;;5045037;28;20028;-47
2022/07/08 07:09:10;;;;;;;1.05;0.38;;;24.10;50.30;;;;;;5046020;28;20174;-48
2022/07/08 07:11:38;;;;;;;0.32;0.25;;;24.20;50.30;;;;;;5045755;28;20045;-48
2022/07/08 07:14:04;;;;;;;0.60;0.30;;;24.20;50.40;;;;;;5046016;28;20029;-48
2022/07/08 07:16:30;;;;;;;1.52;0.50;;;24.20;50.40;;;;;;5045369;28;20040;-48
2022/07/08 07:18:55;;;;;;;0.70;0.47;;;24.20;50.40;;;;;;5045787;28;20021;-48
2022/07/08 07:21:21;;;;;;;1.17;0.40;;;24.20;50.40;;;;;;5045493;28;20024;-48
2022/07/08 07:23:47;;;;;;;1.23;0.40;;;24.20;50.40;;;;;;5044460;28;20029;-47
2022/07/08 07:26:12;;;;;;;1.52;0.45;;;24.20;50.40;;;;;;5045071;28;20159;-48
2022/07/08 07:28:38;;;;;;;1.00;0.38;;;24.20;50.40;;;;;;5045309;28;20068;-48
2022/07/08 07:31:04;;;;;;;1.13;0.40;;;24.20;50.40;;;;;;5045325;28;20033;-48
2022/07/08 07:33:29;;;;;;;1.25;0.50;;;24.20;50.40;;;;;;5077377;28;20086;-48
2022/07/08 07:35:56;;;;;;;0.98;0.50;;;24.20;50.40;;;;;;5044898;28;20408;-48
2022/07/08 07:38:22;;;;;;;1.25;0.50;;;24.20;50.40;;;;;;5045207;28;20043;-48
2022/07/08 07:40:47;;;;;;;1.17;0.60;;;24.20;50.40;;;;;;5045142;28;20029;-51
2022/07/08 07:43:13;;;;;;;1.02;0.45;;;24.20;50.40;;;;;;5045184;28;20112;-48
2022/07/08 07:45:39;;;;;;;0.90;0.40;;;24.20;50.40;;;;;;5044933;28;20035;-47
2022/07/08 07:48:04;;;;;;;0.52;0.25;;;24.30;50.50;;;;;;5045333;28;20029;-47
2022/07/08 07:50:30;;;;;;;1.58;0.50;;;24.20;50.40;;;;;;5044708;28;20033;-47
2022/07/08 07:52:56;;;;;;;1.55;0.50;;;24.20;50.40;;;;;;5045407;28;20219;-47
2022/07/08 07:55:21;;;;;;;1.05;0.40;;;24.30;50.60;;;;;;5044746;28;20037;-47
2022/07/08 07:57:48;;;;;;;1.13;0.40;;;24.30;50.50;;;;;;5045145;28;20662;-46
2022/07/08 08:00:15;;;;;;;0.70;0.32;;;24.30;50.50;;;;;;5045293;28;20074;-48
2022/07/08 08:02:41;;;;;;;1.63;0.50;;;24.30;50.50;;;;;;5045230;28;20083;-48
2022/07/08 08:05:09;;;;;;;1.23;0.50;;;24.30;50.50;;;;;;5044717;28;20061;-47
2022/07/08 08:07:39;;;;;;;1.70;0.60;;;24.30;50.50;;;;;;5044840;28;20029;-47
2022/07/08 08:10:06;;;;;;;1.27;0.40;;;24.30;50.60;;;;;;5044777;28;20048;-48
2022/07/08 08:12:32;;;;;;;1.38;0.50;;;24.30;50.50;;;;;;5044814;28;20033;-47
2022/07/08 08:14:58;;;;;;;1.00;0.50;;;24.40;50.50;;;;;;5044651;28;20033;-49
2022/07/08 08:17:23;;;;;;;1.02;0.40;;;24.30;50.50;;;;;;5044289;28;20120;-47
2022/07/08 08:19:49;;;;;;;1.45;0.57;;;24.40;50.50;;;;;;5044184;28;20391;-47
2022/07/08 08:22:15;;;;;;;1.33;0.50;;;24.40;50.50;;;;;;5044195;28;20033;-48
2022/07/08 08:24:42;;;;;;;1.15;0.40;;;24.40;50.60;;;;;;5044928;28;20389;-48
2022/07/08 08:27:08;;;;;;;1.55;0.50;;;24.30;50.50;;;;;;5044313;28;20100;-47
2022/07/08 08:29:34;;;;;;;1.58;0.40;;;24.40;50.50;;;;;;5044579;28;20378;-47
2022/07/08 08:32:00;;;;;;;0.90;0.45;;;24.40;50.50;;;;;;5044155;28;20049;-48
2022/07/08 08:34:26;;;;;;;0.85;0.40;;;24.40;50.40;;;;;;5044138;28;20817;-48
2022/07/08 08:36:52;;;;;;;0.65;0.30;;;24.40;50.50;;;;;;5044062;28;20359;-47
2022/07/08 08:39:18;;;;;;;1.63;0.40;;;24.40;50.50;;;;;;5043788;28;20635;-48
2022/07/08 08:41:44;;;;;;;1.08;0.40;;;24.40;50.40;;;;;;5044244;28;20021;-47
2022/07/08 08:44:10;;;;;;;0.88;0.28;;;24.40;51.10;;;;;;5044090;28;20555;-48
2022/07/08 08:46:36;;;;;;;1.52;0.40;;;24.40;50.40;;;;;;5043930;28;20098;-47
2022/07/08 08:49:02;;;;;;;0.70;0.30;;;24.40;50.40;;;;;;5044206;28;20029;-47
2022/07/08 08:51:31;;;;;;;1.00;0.45;;;24.40;50.40;;;;;;5044162;28;20036;-47
2022/07/08 08:53:58;;;;;;;0.80;0.43;;;24.40;50.40;;;;;;5043831;28;20025;-48
2022/07/08 08:56:26;;;;;;;1.13;0.30;;;24.40;50.30;;;;;;5043398;28;20021;-47
2022/07/08 08:58:53;;;;;;;1.27;0.50;;;24.40;50.40;;;;;;5044161;28;20094;-47
2022/07/08 09:01:20;;;;;;;1.02;0.50;;;24.40;50.40;;;;;;5043412;28;20174;-47
2022/07/08 09:03:46;;;;;;;1.30;0.50;;;24.50;50.40;;;;;;5043759;28;20024;-47
2022/07/08 09:06:12;;;;;;;0.95;0.40;;;24.50;50.50;;;;;;5043375;28;20083;-48
2022/07/08 09:08:39;;;;;;;1.23;0.43;;;24.40;50.40;;;;;;5043379;28;20257;-48
2022/07/08 09:11:06;;;;;;;0.60;0.30;;;24.50;50.50;;;;;;5043216;28;20106;-48
2022/07/08 09:13:32;;;;;;;0.82;0.40;;;24.40;50.40;;;;;;5043564;28;20033;-47
2022/07/08 09:15:58;;;;;;;1.13;0.40;;;24.40;50.40;;;;;;5043056;28;20039;-48
2022/07/08 09:18:40;;;;;;;1.15;0.35;;;24.40;50.40;;;;;;5043134;28;20087;-47
2022/07/08 09:21:07;;;;;;;1.63;0.82;;;24.40;50.40;;;;;;5043552;28;20029;-47
2022/07/08 09:23:36;;;;;;;0.90;0.45;;;24.50;50.50;;;;;;5043505;28;20426;-48
2022/07/08 09:26:07;;;;;;;1.02;0.40;;;24.50;50.50;;;;;;5042818;28;20021;-47
2022/07/08 09:28:40;;;;;;;1.05;0.40;;;24.50;50.50;;;;;;5043255;28;20037;-48
2022/07/08 09:31:08;;;;;;;1.55;0.57;;;24.50;50.50;;;;;;5042536;28;20052;-47
2022/07/08 09:33:34;;;;;;;0.93;0.60;;;24.50;50.50;;;;;;5043444;28;20083;-47
2022/07/08 09:36:02;;;;;;;1.23;0.40;;;24.50;50.50;;;;;;5042791;28;20108;-47
2022/07/08 09:38:34;;;;;;;1.05;0.40;;;24.50;50.50;;;;;;5043276;28;20043;-47
2022/07/08 09:41:05;;;;;;;0.55;0.40;;;24.50;50.50;;;;;;5042820;28;20082;-49
2022/07/08 09:43:32;;;;;;;1.23;0.40;;;24.50;50.50;;;;;;5043150;28;20029;-48
2022/07/08 09:46:06;;;;;;;0.93;0.40;;;24.50;50.60;;;;;;5042915;28;20021;-49
2022/07/08 09:48:33;;;;;;;0.93;0.47;;;24.50;50.50;;;;;;5043049;28;20135;-48
2022/07/08 09:51:08;;;;;;;1.25;0.40;;;24.50;50.60;;;;;;5043199;28;20025;-48
2022/07/08 09:53:35;;;;;;;0.50;0.30;;;24.50;50.50;;;;;;5042908;28;20128;-47
2022/07/08 09:56:03;;;;;;;0.60;0.30;;;24.50;50.50;;;;;;5042910;28;20029;-48
2022/07/08 09:58:30;;;;;;;0.82;0.35;;;24.50;50.50;;;;;;5043036;28;20037;-47
2022/07/08 10:00:57;;;;;;;1.40;0.45;;;24.50;50.50;;;;;;5043205;28;20078;-47
2022/07/08 10:03:24;;;;;;;0.93;0.30;;;24.50;50.50;;;;;;5042708;28;20029;-47
2022/07/08 10:05:49;;;;;;;1.02;0.50;;;24.50;50.50;;;;;;5042819;28;20712;-47
2022/07/08 10:08:17;;;;;;;0.47;0.32;;;24.50;50.50;;;;;;5043142;28;20035;-48
2022/07/08 10:10:45;;;;;;;1.15;0.50;;;24.50;50.50;;;;;;5042819;28;20154;-48
2022/07/08 10:13:13;;;;;;;2.72;0.70;;;24.50;50.50;;;;;;5042491;28;20052;-47
2022/07/08 10:15:39;;;;;;;0.98;0.32;;;24.50;50.50;;;;;;5042752;28;20051;-48
2022/07/08 10:18:10;;;;;;;0.98;0.50;;;24.50;50.50;;;;;;5042861;28;20053;-47
2022/07/08 10:20:39;;;;;;;0.90;0.50;;;24.50;50.50;;;;;;5042730;28;20374;-47
2022/07/08 10:23:09;;;;;;;1.25;0.43;;;24.50;50.50;;;;;;5043000;28;20075;-48
2022/07/08 10:25:36;;;;;;;1.50;0.65;;;24.50;50.50;;;;;;5042712;28;20082;-47
2022/07/08 10:28:10;;;;;;;1.05;0.50;;;24.50;50.50;;;;;;5042773;28;20024;-47
2022/07/08 10:30:52;;;;;;;1.23;0.50;;;24.50;50.50;;;;;;5043383;28;20021;-46
2022/07/08 10:33:19;;;;;;;1.40;0.40;;;24.50;50.50;;;;;;5043978;28;20028;-47
2022/07/08 10:36:01;;;;;;;0.77;0.40;;;24.50;50.50;;;;;;5042723;28;20047;-46
2022/07/08 10:38:37;;;;;;;0.77;0.40;;;24.50;50.50;;;;;;5042621;28;20690;-48
2022/07/08 10:41:06;;;;;;;1.25;0.50;;;24.50;50.50;;;;;;5042520;28;20033;-47
2022/07/08 10:43:32;;;;;;;2.15;0.47;;;24.50;50.50;;;;;;5045119;28;20032;-47
2022/07/08 10:46:10;;;;;;;1.50;0.60;;;24.50;50.50;;;;;;5046198;28;20104;-47
2022/07/08 10:48:41;;;;;;;0.80;0.40;;;24.50;50.50;;;;;;5046616;28;20058;-47
2022/07/08 10:51:28;;;;;;;1.27;0.43;;;24.50;50.50;;;;;;5046265;28;20080;-47
2022/07/08 10:54:01;;;;;;;1.42;0.40;;;24.50;50.50;;;;;;5046159;28;20057;-48
2022/07/08 10:56:55;;;;;;;0.95;0.50;;;24.50;50.50;;;;;;5045839;28;20037;-48
2022/07/08 10:59:35;;;;;;;1.40;0.50;;;24.50;50.50;;;;;;5046330;28;20083;-51
2022/07/08 11:02:13;;;;;;;1.17;0.50;;;24.50;50.50;;;;;;5045799;28;20027;-48
2022/07/08 11:04:39;;;;;;;1.73;0.75;;;24.50;50.50;;;;;;5046251;28;20029;-47
2022/07/08 11:07:29;;;;;;;0.52;0.40;;;24.50;50.50;;;;;;5045586;28;20036;-48
2022/07/08 11:10:13;;;;;;;1.40;0.60;;;24.50;50.50;;;;;;5045978;28;20071;-47
2022/07/08 11:12:40;;;;;;;0.90;0.50;;;24.50;50.50;;;;;;5045940;28;20408;-48
2022/07/08 11:15:10;;;;;;;1.35;0.60;;;24.50;50.50;;;;;;5045801;28;20043;-48
2022/07/08 11:17:37;;;;;;;1.30;0.68;;;24.50;50.50;;;;;;5045758;28;20021;-48
2022/07/08 11:20:11;;;;;;;0.82;0.47;;;24.50;50.50;;;;;;5045640;28;20025;-48
2022/07/08 11:22:38;;;;;;;1.10;0.52;;;24.50;50.50;;;;;;5044500;28;20639;-48
2022/07/08 11:25:06;;;;;;;0.90;0.50;;;24.50;50.50;;;;;;5044726;28;20096;-48
2022/07/08 11:27:33;;;;;;;1.27;0.52;;;24.50;50.50;;;;;;5045632;28;20021;-47
2022/07/08 11:30:00;;;;;;;1.27;0.50;;;24.50;50.50;;;;;;5045222;28;20540;-47
2022/07/08 11:32:27;;;;;;;1.08;0.40;;;24.50;50.70;;;;;;5045352;28;20130;-48
2022/07/08 11:34:54;;;;;;;1.40;0.50;;;24.50;50.50;;;;;;5045061;28;20066;-48
2022/07/08 11:37:20;;;;;;;0.93;0.50;;;24.50;50.50;;;;;;5045184;28;20046;-47
2022/07/08 11:39:46;;;;;;;1.55;0.65;;;24.50;50.40;;;;;;5044598;28;20018;-47
2022/07/08 11:42:13;;;;;;;2.20;0.57;;;24.60;50.40;;;;;;5043058;28;20124;-47
2022/07/08 11:44:40;;;;;;;1.02;0.50;;;24.50;50.40;;;;;;5044878;28;20033;-46
2022/07/08 11:47:06;;;;;;;2.15;0.90;;;24.50;50.40;;;;;;5044593;28;20566;-46
2022/07/08 11:49:33;;;;;;;3.33;0.85;;;24.50;50.10;;;;;;5045199;28;20029;-47
2022/07/08 11:52:00;;;;;;;4.30;1.17;;;24.50;50.20;;;;;;5052526;28;20063;-50
2022/07/08 11:54:30;;;;;;;2.42;1.23;;;24.50;50.30;;;;;;5045966;28;20025;-49
2022/07/08 11:57:00;;;;;;;2.05;1.10;;;24.50;50.60;;;;;;5047925;28;20040;-49
2022/07/08 11:59:31;;;;;;;2.58;1.17;;;24.50;50.80;;;;;;5064393;28;20096;-46
2022/07/08 12:01:58;;;;;;;2.15;1.00;;;24.50;50.90;;;;;;5064045;28;20017;-46
2022/07/08 12:04:24;;;;;;;2.35;0.73;;;24.60;51.60;;;;;;5062318;28;20120;-47
2022/07/08 12:06:52;;;;;;;2.17;0.95;;;24.70;51.20;;;;;;5047167;28;20040;-46
2022/07/08 12:09:20;;;;;;;2.42;1.00;;;24.70;50.60;;;;;;5050187;28;20032;-48
2022/07/08 12:11:48;;;;;;;2.95;0.93;;;24.80;50.10;;;;;;5046386;28;20032;-47
2022/07/08 12:14:14;;;;;;;4.82;1.33;;;24.90;50.10;;;;;;5043340;28;20082;-47
2022/07/08 12:16:45;;;;;;;3.22;1.00;;;24.90;50.00;;;;;;5043491;28;20028;-48
2022/07/08 12:19:30;;;;;;;2.53;1.05;;;24.90;49.90;;;;;;5043746;28;20025;-48
2022/07/08 12:21:59;;;;;;;2.33;0.90;;;24.90;49.90;;;;;;5044449;28;20021;-48
2022/07/08 12:24:34;;;;;;;4.30;1.13;;;24.90;49.70;;;;;;5043953;28;20071;-48
2022/07/08 12:27:04;;;;;;;2.65;1.45;;;24.90;49.60;;;;;;5075170;28;20044;-47
2022/07/08 12:29:38;;;;;;;2.35;1.15;;;24.80;49.40;;;;;;5043996;28;20340;-48
2022/07/08 12:32:07;;;;;;;4.03;1.50;;;24.80;49.30;;;;;;5044203;28;20025;-48
2022/07/08 12:34:34;;;;;;;3.47;1.48;;;24.80;49.40;;;;;;5043601;28;20100;-47
2022/07/08 12:37:16;;;;;;;5.68;1.50;;;24.80;49.30;;;;;;5043856;28;20056;-46
2022/07/08 12:39:42;;;;;;;2.80;1.60;;;24.80;49.40;;;;;;5043701;28;20618;-49
2022/07/08 12:42:08;;;;;;;3.90;1.35;;;24.80;49.10;;;;;;5024361;28;20040;-49
2022/07/08 12:44:41;;;;;;;4.00;1.23;;;24.80;49.00;;;;;;5024069;28;20421;-49
2022/07/08 12:47:10;;;;;;;2.28;1.00;;;24.80;48.80;;;;;;5023349;28;20036;-49
2022/07/08 12:49:40;;;;;;;3.42;1.30;;;24.80;49.70;;;;;;5023722;28;20104;-49
2022/07/08 12:52:08;;;;;;;3.03;1.20;;;24.80;48.80;;;;;;5023506;28;20112;-48
2022/07/08 12:54:34;;;;;;;3.50;1.33;;;24.80;48.80;;;;;;5024209;28;20409;-49